createdAt,value
2023-03-26T00:01:46.966Z,99290.91
2023-03-26T00:04:15.185Z,99272.31
2023-03-26T00:06:44.416Z,99300.53
2023-03-26T00:09:14.069Z,99296.88
2023-03-26T00:11:42.458Z,99298.50
2023-03-26T00:14:14.194Z,99289.81
2023-03-26T00:16:43.281Z,99263.69
2023-03-26T00:19:11.646Z,99307.28
2023-03-26T00:21:39.912Z,99320.50
2023-03-26T00:24:15.289Z,99303.63
2023-03-26T00:26:44.624Z,99321.13
2023-03-26T00:29:13.921Z,99321.75
2023-03-26T00:31:46.414Z,99337.81
2023-03-26T00:34:15.747Z,99258.44
2023-03-26T00:36:44.019Z,99330.44
2023-03-26T00:39:14.113Z,99325.19
2023-03-26T00:41:43.083Z,99331.38
2023-03-26T00:44:11.620Z,99329.63
2023-03-26T00:46:39.844Z,99288.75
2023-03-26T00:49:10.969Z,99328.09
2023-03-26T00:51:39.537Z,99336.25
2023-03-26T00:54:08.872Z,99276.94
2023-03-26T00:56:38.662Z,99317.84
2023-03-26T00:59:06.730Z,99315.13
2023-03-26T01:01:34.616Z,99336.91
2023-03-26T01:04:35.240Z,99334.59
2023-03-26T01:07:10.562Z,99283.94
2023-03-26T01:09:44.934Z,99335.25
2023-03-26T01:12:17.105Z,99340.97
2023-03-26T01:14:46.313Z,99337.78
2023-03-26T01:17:15.037Z,99339.66
2023-03-26T01:19:49.548Z,99342.56
2023-03-26T01:22:20.792Z,99330.75
2023-03-26T01:24:56.085Z,99332.03
2023-03-26T01:27:33.597Z,99345.56
2023-03-26T01:30:11.467Z,99335.00
2023-03-26T01:32:51.543Z,99339.41
2023-03-26T01:35:30.087Z,99340.84
2023-03-26T01:38:10.923Z,99314.72
2023-03-26T01:40:47.051Z,99324.84
2023-03-26T01:43:23.205Z,99333.50
2023-03-26T01:45:52.633Z,99335.88
2023-03-26T01:48:21.137Z,99312.03
2023-03-26T01:50:53.488Z,99334.72
2023-03-26T01:53:21.682Z,99319.09
2023-03-26T01:56:02.056Z,99335.94
2023-03-26T01:58:36.894Z,99330.91
2023-03-26T02:01:16.892Z,99262.31
2023-03-26T02:03:51.435Z,99326.56
2023-03-26T02:06:25.731Z,99324.16
2023-03-26T02:08:57.690Z,99329.13
2023-03-26T02:11:34.782Z,99280.97
2023-03-26T02:14:05.423Z,99315.50
2023-03-26T02:16:33.421Z,99324.91
2023-03-26T02:19:01.286Z,99319.81
2023-03-26T02:21:29.440Z,99316.13
2023-03-26T02:24:02.747Z,99314.31
2023-03-26T02:26:37.641Z,99286.06
2023-03-26T02:29:12.324Z,99294.72
2023-03-26T02:31:43.339Z,99309.19
2023-03-26T02:34:11.308Z,99297.09
2023-03-26T02:36:42.876Z,99296.75
2023-03-26T02:39:11.971Z,99203.34
2023-03-26T02:41:42.050Z,99292.59
2023-03-26T02:44:12.536Z,99283.88
2023-03-26T02:46:58.666Z,99289.13
2023-03-26T02:49:48.223Z,99284.25
2023-03-26T02:52:33.601Z,99278.91
2023-03-26T02:55:01.639Z,99280.56
2023-03-26T02:57:31.364Z,99282.09
2023-03-26T03:00:17.401Z,99260.72
2023-03-26T03:02:48.817Z,99280.41
2023-03-26T03:05:48.473Z,99237.22
2023-03-26T03:08:39.156Z,99269.56
2023-03-26T03:11:22.075Z,99277.19
2023-03-26T03:13:54.165Z,99276.66
2023-03-26T03:16:29.654Z,99275.09
2023-03-26T03:19:01.829Z,99276.28
2023-03-26T03:21:40.591Z,99274.41
2023-03-26T03:24:11.608Z,99282.13
2023-03-26T03:26:47.635Z,99244.16
2023-03-26T03:29:43.895Z,99274.34
2023-03-26T03:32:32.047Z,99281.84
2023-03-26T03:35:05.234Z,99279.50
2023-03-26T03:37:33.122Z,99271.84
2023-03-26T03:40:01.480Z,99228.94
2023-03-26T03:42:32.632Z,99233.91
2023-03-26T03:45:05.938Z,99274.22
2023-03-26T03:48:00.379Z,99274.69
2023-03-26T03:50:36.589Z,99251.34
2023-03-26T03:53:30.489Z,99277.63
2023-03-26T03:56:01.927Z,99276.47
2023-03-26T03:58:48.670Z,99276.34
2023-03-26T04:01:26.171Z,99263.75
2023-03-26T04:04:00.127Z,99208.91
2023-03-26T04:06:41.526Z,99276.91
2023-03-26T04:09:11.095Z,99250.13
2023-03-26T04:11:39.614Z,99268.59
2023-03-26T04:14:27.692Z,99262.97
2023-03-26T04:17:06.490Z,99270.75
2023-03-26T04:19:38.475Z,99262.50
2023-03-26T04:22:09.363Z,99264.91
2023-03-26T04:24:44.394Z,99209.56
2023-03-26T04:27:44.390Z,99145.75
2023-03-26T04:30:21.884Z,99146.69
2023-03-26T04:32:58.614Z,99247.16
2023-03-26T04:35:30.459Z,99247.97
2023-03-26T04:37:58.988Z,99245.88
2023-03-26T04:40:34.560Z,99241.78
2023-03-26T04:43:26.402Z,99237.63
2023-03-26T04:46:07.452Z,99236.16
2023-03-26T04:48:43.085Z,99225.91
2023-03-26T04:51:18.227Z,99245.41
2023-03-26T04:53:52.688Z,99235.78
2023-03-26T04:56:48.052Z,99235.78
2023-03-26T04:59:34.931Z,99243.63
2023-03-26T05:02:07.917Z,99235.47
2023-03-26T05:04:49.923Z,99153.69
2023-03-26T05:07:22.346Z,99219.28
2023-03-26T05:09:53.650Z,99233.66
2023-03-26T05:12:35.028Z,99231.69
2023-03-26T05:15:07.738Z,99237.22
2023-03-26T05:18:04.731Z,99223.13
2023-03-26T05:20:42.566Z,99229.34
2023-03-26T05:23:11.446Z,99222.59
2023-03-26T05:25:59.560Z,99216.91
2023-03-26T05:28:28.215Z,99209.91
2023-03-26T05:31:03.656Z,99207.13
2023-03-26T05:33:37.341Z,99204.88
2023-03-26T05:36:15.232Z,99207.25
2023-03-26T05:38:49.921Z,99212.16
2023-03-26T05:41:36.339Z,99203.53
2023-03-26T05:44:04.493Z,99198.16
2023-03-26T05:46:32.671Z,99191.00
2023-03-26T05:49:01.377Z,99187.63
2023-03-26T05:51:35.454Z,99084.88
2023-03-26T05:54:38.516Z,99193.41
2023-03-26T05:57:09.150Z,99176.94
2023-03-26T05:59:56.590Z,99193.84
2023-03-26T06:02:57.280Z,99180.53
2023-03-26T06:05:45.693Z,99182.53
2023-03-26T06:08:20.634Z,99185.72
2023-03-26T06:10:58.927Z,99168.28
2023-03-26T06:13:27.514Z,99182.69
2023-03-26T06:15:57.914Z,99169.63
2023-03-26T06:18:33.146Z,99166.81
2023-03-26T06:21:19.886Z,99160.84
2023-03-26T06:24:00.501Z,99166.22
2023-03-26T06:26:41.079Z,99160.94
2023-03-26T06:29:31.146Z,99164.66
2023-03-26T06:32:19.486Z,99163.34
2023-03-26T06:35:07.713Z,99141.47
2023-03-26T06:37:35.984Z,99166.50
2023-03-26T06:40:06.645Z,99152.53
2023-03-26T06:43:11.116Z,99157.41
2023-03-26T06:46:11.272Z,99167.09
2023-03-26T06:48:39.573Z,99172.56
2023-03-26T06:51:27.679Z,99164.81
2023-03-26T06:54:18.673Z,99153.22
2023-03-26T06:57:21.000Z,99164.13
2023-03-26T07:00:10.537Z,99155.16
2023-03-26T07:02:56.772Z,99161.56
2023-03-26T07:05:43.354Z,99155.75
2023-03-26T07:08:31.993Z,99135.53
2023-03-26T07:11:36.353Z,99114.75
2023-03-26T07:14:27.812Z,99117.66
2023-03-26T07:17:09.020Z,99143.56
2023-03-26T07:20:08.140Z,99132.28
2023-03-26T07:22:36.930Z,99094.25
2023-03-26T07:25:09.318Z,99122.91
2023-03-26T07:27:59.243Z,99003.63
2023-03-26T07:30:59.894Z,99116.91
2023-03-26T07:33:47.308Z,99125.03
2023-03-26T07:36:34.985Z,99108.00
2023-03-26T07:39:37.492Z,99115.72
2023-03-26T07:42:35.718Z,99112.75
2023-03-26T07:45:30.448Z,99093.69
2023-03-26T07:48:16.945Z,99079.88
2023-03-26T07:51:10.407Z,99117.00
2023-03-26T07:54:04.114Z,99118.63
2023-03-26T07:56:48.204Z,99105.22
2023-03-26T07:59:52.197Z,99104.19
2023-03-26T08:03:15.995Z,99063.75
2023-03-26T08:06:01.450Z,99103.03
2023-03-26T08:08:56.417Z,99105.38
2023-03-26T08:11:57.895Z,99067.72
2023-03-26T08:14:37.268Z,99077.72
2023-03-26T08:17:11.036Z,99098.50
2023-03-26T08:19:49.259Z,99093.44
2023-03-26T08:22:26.241Z,99098.41
2023-03-26T08:25:20.880Z,99098.91
2023-03-26T08:28:01.695Z,99098.41
2023-03-26T08:30:30.955Z,99093.09
2023-03-26T08:33:00.702Z,99099.25
2023-03-26T08:35:29.958Z,99099.56
2023-03-26T08:37:58.036Z,99105.22
2023-03-26T08:40:54.012Z,99100.84
2023-03-26T08:43:49.044Z,99094.88
2023-03-26T08:46:48.911Z,99102.16
2023-03-26T08:49:45.894Z,99095.84
2023-03-26T08:52:38.671Z,98961.63
2023-03-26T08:55:23.220Z,99098.31
2023-03-26T08:58:37.088Z,99091.06
2023-03-26T09:01:23.317Z,99086.97
2023-03-26T09:04:22.552Z,99073.97
2023-03-26T09:07:22.897Z,99078.75
2023-03-26T09:10:33.257Z,99068.50
2023-03-26T09:13:43.525Z,99042.66
2023-03-26T09:16:54.166Z,99069.69
2023-03-26T09:19:55.252Z,99041.91
2023-03-26T09:23:07.602Z,99066.31
2023-03-26T09:26:04.905Z,99062.69
2023-03-26T09:29:11.278Z,99066.69
2023-03-26T09:32:24.361Z,99014.06
2023-03-26T09:35:13.223Z,99062.69
2023-03-26T09:37:58.858Z,99052.38
2023-03-26T09:40:38.797Z,98951.38
2023-03-26T09:43:37.546Z,99050.03
2023-03-26T09:46:21.811Z,99046.38
2023-03-26T09:49:08.859Z,99035.84
2023-03-26T09:51:55.445Z,99046.22
2023-03-26T09:54:51.727Z,98978.16
2023-03-26T09:57:36.510Z,99021.38
2023-03-26T10:00:22.192Z,99044.69
2023-03-26T10:03:15.056Z,99016.03
2023-03-26T10:05:58.024Z,99042.09
2023-03-26T10:08:44.293Z,99024.94
2023-03-26T10:11:21.398Z,99031.94
2023-03-26T10:14:00.028Z,99039.47
2023-03-26T10:16:39.299Z,98972.66
2023-03-26T10:19:31.654Z,99010.13
2023-03-26T10:22:09.455Z,99027.09
2023-03-26T10:25:00.413Z,99024.28
2023-03-26T10:27:42.255Z,99021.94
2023-03-26T10:30:40.604Z,99017.84
2023-03-26T10:33:18.997Z,99011.59
2023-03-26T10:35:57.289Z,99016.34
2023-03-26T10:38:37.052Z,99017.97
2023-03-26T10:41:12.740Z,99016.72
2023-03-26T10:44:08.884Z,99009.03
2023-03-26T10:47:15.482Z,99009.22
2023-03-26T10:50:04.071Z,98998.59
2023-03-26T10:52:38.768Z,98885.31
2023-03-26T10:55:15.288Z,99004.59
2023-03-26T10:57:46.966Z,99011.38
2023-03-26T11:00:18.088Z,98989.13
2023-03-26T11:02:55.651Z,99007.13
2023-03-26T11:05:47.823Z,98928.47
2023-03-26T11:08:31.101Z,98984.38
2023-03-26T11:11:10.264Z,99012.09
2023-03-26T11:13:50.402Z,99006.47
2023-03-26T11:16:26.675Z,99001.75
2023-03-26T11:19:00.537Z,99013.59
2023-03-26T11:21:37.275Z,99017.38
2023-03-26T11:24:37.576Z,99018.13
2023-03-26T11:27:15.314Z,99020.78
2023-03-26T11:29:51.483Z,99015.34
2023-03-26T11:32:23.676Z,98986.13
2023-03-26T11:35:00.409Z,98996.41
2023-03-26T11:37:34.756Z,98984.66
2023-03-26T11:40:07.750Z,99009.63
2023-03-26T11:42:35.856Z,99010.06
2023-03-26T11:45:07.822Z,99011.09
2023-03-26T11:47:41.706Z,99006.91
2023-03-26T11:50:16.917Z,98998.91
2023-03-26T11:52:47.102Z,98992.16
2023-03-26T11:55:15.788Z,98998.34
2023-03-26T11:57:51.747Z,98998.75
2023-03-26T12:00:23.030Z,99004.63
2023-03-26T12:02:51.871Z,98999.25
2023-03-26T12:05:22.293Z,99010.34
2023-03-26T12:07:57.282Z,99014.03
2023-03-26T12:10:29.391Z,99022.34
2023-03-26T12:13:00.632Z,99012.88
2023-03-26T12:15:30.865Z,99016.91
2023-03-26T12:17:59.298Z,99027.59
2023-03-26T12:20:38.580Z,99025.13
2023-03-26T12:23:08.178Z,99032.22
2023-03-26T12:25:38.857Z,99004.00
2023-03-26T12:28:18.850Z,99019.91
2023-03-26T12:30:55.000Z,99024.53
2023-03-26T12:33:27.655Z,99014.91
2023-03-26T12:35:57.902Z,99024.78
2023-03-26T12:38:32.988Z,99020.09
2023-03-26T12:42:36.633Z,98969.78
2023-03-26T12:44:51.244Z,99020.69
2023-03-26T12:47:56.162Z,98998.38
2023-03-26T12:49:35.371Z,99012.06
2023-03-26T12:52:19.756Z,99017.44
2023-03-26T12:54:57.586Z,99019.97
2023-03-26T12:57:30.754Z,99017.41
2023-03-26T13:00:11.467Z,98984.50
2023-03-26T13:02:58.872Z,99014.91
2023-03-26T13:05:43.102Z,99005.91
2023-03-26T13:08:28.708Z,99015.78
2023-03-26T13:11:01.757Z,98982.56
2023-03-26T13:13:56.326Z,99007.06
2023-03-26T13:16:33.289Z,98962.44
2023-03-26T13:19:07.076Z,99004.50
2023-03-26T13:21:47.036Z,98994.69
2023-03-26T13:24:29.613Z,99003.88
2023-03-26T13:27:12.951Z,98994.50
2023-03-26T13:29:56.334Z,99001.50
2023-03-26T13:32:35.112Z,98996.16
2023-03-26T13:35:17.687Z,98990.41
2023-03-26T13:37:53.369Z,98999.88
2023-03-26T13:40:27.838Z,98981.25
2023-03-26T13:43:15.964Z,98899.81
2023-03-26T13:45:55.792Z,98995.63
2023-03-26T13:48:29.366Z,98973.09
2023-03-26T13:51:03.689Z,98933.47
2023-03-26T13:53:38.450Z,98982.53
2023-03-26T13:56:09.458Z,98992.94
2023-03-26T13:58:43.599Z,98982.38
2023-03-26T14:01:17.529Z,98982.28
2023-03-26T14:03:54.528Z,98949.25
2023-03-26T14:06:33.972Z,98983.94
2023-03-26T14:09:06.558Z,98958.00
2023-03-26T14:11:47.302Z,98982.72
2023-03-26T14:14:21.141Z,98986.38
2023-03-26T14:16:54.536Z,98967.13
2023-03-26T14:20:14.766Z,98990.47
2023-03-26T14:22:52.215Z,98987.38
2023-03-26T14:25:31.248Z,98985.97
2023-03-26T14:28:17.135Z,98870.91
2023-03-26T14:31:19.440Z,98988.03
2023-03-26T14:34:25.966Z,98989.97
2023-03-26T14:37:27.801Z,98986.53
2023-03-26T14:40:14.877Z,98982.22
2023-03-26T14:42:48.912Z,98980.31
2023-03-26T14:45:39.582Z,98976.00
2023-03-26T14:48:38.433Z,98982.09
2023-03-26T14:51:19.584Z,98982.69
2023-03-26T14:53:52.119Z,98989.66
2023-03-26T14:56:47.957Z,98984.84
2023-03-26T15:00:07.097Z,98978.56
2023-03-26T15:03:34.574Z,98979.75
2023-03-26T15:06:27.255Z,98987.38
2023-03-26T15:09:27.687Z,98985.09
2023-03-26T15:12:12.057Z,98997.78
2023-03-26T15:15:26.995Z,98987.06
2023-03-26T15:18:15.573Z,98991.03
2023-03-26T15:21:16.422Z,98993.31
2023-03-26T15:24:09.778Z,98999.09
2023-03-26T15:27:12.050Z,98999.84
2023-03-26T15:30:02.775Z,98970.88
2023-03-26T15:33:06.814Z,99004.84
2023-03-26T15:36:09.313Z,98988.13
2023-03-26T15:39:08.429Z,99009.66
2023-03-26T15:41:45.206Z,98978.19
2023-03-26T15:44:40.947Z,99006.22
2023-03-26T15:47:37.307Z,99008.66
2023-03-26T15:50:19.150Z,99015.56
2023-03-26T15:52:56.016Z,98990.19
2023-03-26T15:55:33.605Z,99017.13
2023-03-26T15:58:11.458Z,98970.81
2023-03-26T16:00:50.900Z,99008.69
2023-03-26T16:03:31.881Z,99004.53
2023-03-26T16:06:30.795Z,99017.75
2023-03-26T16:09:17.035Z,99013.84
2023-03-26T16:11:54.950Z,99002.72
2023-03-26T16:14:25.179Z,99021.50
2023-03-26T16:16:55.220Z,99026.03
2023-03-26T16:19:49.169Z,99031.47
2023-03-26T16:22:43.413Z,99033.72
2023-03-26T16:25:30.798Z,98937.56
2023-03-26T16:28:27.512Z,98790.69
2023-03-26T16:31:38.381Z,99026.22
2023-03-26T16:34:42.455Z,99046.06
2023-03-26T16:37:36.985Z,99041.97
2023-03-26T16:40:34.225Z,99049.41
2023-03-26T16:43:26.510Z,99039.94
2023-03-26T16:46:01.195Z,99004.22
2023-03-26T16:48:36.390Z,99014.91
2023-03-26T16:51:14.900Z,99045.94
2023-03-26T16:53:51.225Z,99063.59
2023-03-26T16:56:31.992Z,99060.66
2023-03-26T16:59:07.793Z,99064.31
2023-03-26T17:01:42.921Z,99071.59
2023-03-26T17:04:17.167Z,99082.06
2023-03-26T17:07:09.589Z,99077.66
2023-03-26T17:09:46.514Z,99086.72
2023-03-26T17:12:23.788Z,99083.94
2023-03-26T17:15:07.444Z,99096.28
2023-03-26T17:17:58.591Z,99091.72
2023-03-26T17:20:36.827Z,99099.75
2023-03-26T17:23:17.242Z,99078.06
2023-03-26T17:25:58.549Z,99058.44
2023-03-26T17:29:01.593Z,99100.84
2023-03-26T17:31:41.127Z,99125.66
2023-03-26T17:34:34.825Z,99130.44
2023-03-26T17:37:05.645Z,99135.28
2023-03-26T17:40:36.066Z,99143.50
2023-03-26T17:43:06.279Z,99148.91
2023-03-26T17:45:39.209Z,99144.19
2023-03-26T17:48:17.816Z,99130.53
2023-03-26T17:50:53.418Z,99157.72
2023-03-26T17:53:25.748Z,99170.06
2023-03-26T17:55:54.818Z,99137.41
2023-03-26T17:58:28.121Z,99173.03
2023-03-26T18:01:05.056Z,99175.94
2023-03-26T18:03:37.302Z,99182.06
2023-03-26T18:06:09.637Z,99101.59
2023-03-26T18:08:50.740Z,99200.00
2023-03-26T18:11:38.273Z,99191.38
2023-03-26T18:14:30.763Z,99201.00
2023-03-26T18:17:00.975Z,99080.00
2023-03-26T18:19:31.867Z,99209.72
2023-03-26T18:22:04.726Z,99196.91
2023-03-26T18:24:37.463Z,99194.28
2023-03-26T18:27:09.549Z,99218.50
2023-03-26T18:29:38.853Z,99226.03
2023-03-26T18:32:22.175Z,99201.16
2023-03-26T18:34:57.226Z,99227.50
2023-03-26T18:37:28.110Z,99168.66
2023-03-26T18:40:02.298Z,99231.16
2023-03-26T18:42:32.727Z,99237.06
2023-03-26T18:45:05.239Z,99235.88
2023-03-26T18:47:33.324Z,99240.09
2023-03-26T18:50:02.583Z,99242.28
2023-03-26T18:52:33.191Z,99247.78
2023-03-26T18:55:03.780Z,99254.44
2023-03-26T18:57:31.843Z,99246.09
2023-03-26T19:00:15.633Z,99184.47
2023-03-26T19:02:43.721Z,99252.69
2023-03-26T19:05:16.732Z,99263.56
2023-03-26T19:07:47.102Z,99263.06
2023-03-26T19:10:21.997Z,99271.38
2023-03-26T19:12:56.287Z,99270.47
2023-03-26T19:15:25.646Z,99283.72
2023-03-26T19:17:59.585Z,99283.66
2023-03-26T19:20:33.633Z,99292.22
2023-03-26T19:23:01.730Z,99296.09
2023-03-26T19:25:35.245Z,99227.69
2023-03-26T19:28:03.645Z,99306.88
2023-03-26T19:30:34.087Z,99296.81
2023-03-26T19:33:13.976Z,99312.25
2023-03-26T19:35:45.339Z,99287.00
2023-03-26T19:38:25.514Z,99319.91
2023-03-26T19:40:55.497Z,99335.34
2023-03-26T19:43:23.856Z,99325.38
2023-03-26T19:46:00.266Z,99324.72
2023-03-26T19:48:45.676Z,99336.47
2023-03-26T19:51:20.975Z,99345.28
2023-03-26T19:53:52.972Z,99346.03
2023-03-26T19:56:21.890Z,99338.72
2023-03-26T19:58:50.422Z,99349.84
2023-03-26T20:01:20.911Z,99356.56
2023-03-26T20:03:52.639Z,99360.28
2023-03-26T20:06:33.956Z,99344.69
2023-03-26T20:09:10.872Z,99364.69
2023-03-26T20:11:39.878Z,99373.22
2023-03-26T20:14:13.834Z,99379.78
2023-03-26T20:16:43.813Z,99374.38
2023-03-26T20:19:14.097Z,99384.75
2023-03-26T20:21:44.311Z,99386.19
2023-03-26T20:24:14.635Z,99385.97
2023-03-26T20:26:42.575Z,99393.41
2023-03-26T20:29:11.517Z,99406.97
2023-03-26T20:31:41.345Z,99386.47
2023-03-26T20:34:19.778Z,99397.28
2023-03-26T20:36:54.245Z,99387.97
2023-03-26T20:39:22.944Z,99407.16
2023-03-26T20:41:51.540Z,99409.44
2023-03-26T20:44:20.992Z,99423.78
2023-03-26T20:46:50.607Z,99409.44
2023-03-26T20:49:19.200Z,99428.44
2023-03-26T20:51:47.702Z,99431.06
2023-03-26T20:54:19.411Z,99419.31
2023-03-26T20:56:49.204Z,99422.91
2023-03-26T20:59:22.290Z,99436.78
2023-03-26T21:01:51.290Z,99438.47
2023-03-26T21:04:20.380Z,99437.25
2023-03-26T21:06:48.956Z,99446.19
2023-03-26T21:09:23.618Z,99433.03
2023-03-26T21:12:00.361Z,99400.28
2023-03-26T21:14:32.144Z,99454.41
2023-03-26T21:17:00.539Z,99457.88
2023-03-26T21:19:29.100Z,99457.63
2023-03-26T21:22:04.777Z,99471.53
2023-03-26T21:24:46.919Z,99474.28
2023-03-26T21:27:26.184Z,99484.25
2023-03-26T21:29:54.824Z,99481.75
2023-03-26T21:32:24.218Z,99490.56
2023-03-26T21:34:58.505Z,99487.84
2023-03-26T21:37:27.960Z,99486.16
2023-03-26T21:39:59.736Z,99482.56
2023-03-26T21:42:29.383Z,99506.19
2023-03-26T21:44:57.704Z,99512.09
2023-03-26T21:47:26.257Z,99501.13
2023-03-26T21:49:54.767Z,99517.13
2023-03-26T21:52:23.876Z,99484.56
2023-03-26T21:54:52.795Z,99533.69
2023-03-26T21:57:43.419Z,99491.78
2023-03-26T22:00:16.265Z,99527.94
2023-03-26T22:02:56.258Z,99539.41
2023-03-26T22:05:31.105Z,99492.66
2023-03-26T22:08:02.075Z,99537.47
2023-03-26T22:10:30.827Z,99516.44
2023-03-26T22:13:00.415Z,99545.53
2023-03-26T22:15:30.552Z,99539.00
2023-03-26T22:18:00.886Z,99551.56
2023-03-26T22:20:29.174Z,99510.56
2023-03-26T22:22:57.035Z,99559.28
2023-03-26T22:25:25.267Z,99567.31
2023-03-26T22:27:53.849Z,99509.72
2023-03-26T22:30:23.044Z,99567.31
2023-03-26T22:32:51.723Z,99573.41
2023-03-26T22:35:20.119Z,99575.81
2023-03-26T22:37:48.424Z,99563.22
2023-03-26T22:40:17.901Z,99471.59
2023-03-26T22:42:45.746Z,99587.66
2023-03-26T22:45:13.993Z,99582.19
2023-03-26T22:47:43.261Z,99567.81
2023-03-26T22:50:12.117Z,99561.53
2023-03-26T22:52:40.839Z,99605.66
2023-03-26T22:55:10.995Z,99610.22
2023-03-26T22:57:39.249Z,99585.91
2023-03-26T23:00:16.095Z,99623.50
2023-03-26T23:02:46.110Z,99626.13
2023-03-26T23:05:14.156Z,99628.88
2023-03-26T23:07:42.464Z,99639.00
2023-03-26T23:10:11.629Z,99634.59
2023-03-26T23:12:39.961Z,99626.13
2023-03-26T23:15:09.760Z,99655.50
2023-03-26T23:17:38.617Z,99658.78
2023-03-26T23:20:14.607Z,99639.50
2023-03-26T23:22:43.673Z,99667.56
2023-03-26T23:25:12.575Z,99670.00
2023-03-26T23:27:41.253Z,99674.00
2023-03-26T23:30:11.864Z,99640.44
2023-03-26T23:32:40.653Z,99691.72
2023-03-26T23:35:11.217Z,99678.16
2023-03-26T23:37:42.204Z,99697.25
2023-03-26T23:40:12.472Z,99698.34
2023-03-26T23:42:40.384Z,99687.22
2023-03-26T23:45:09.295Z,99714.97
2023-03-26T23:47:37.406Z,99714.88
2023-03-26T23:50:07.768Z,99716.72
2023-03-26T23:52:37.774Z,99721.63
2023-03-26T23:55:06.271Z,99684.03
2023-03-26T23:57:35.393Z,99720.03
